ADDS METAR Data INFO
IDs: Format: Raw Decoded Include TAF

Data at: 0401 UTC 19 Jul 2018

KUAO 190353Z AUTO 02006KT 10SM CLR 24/13 A3011 RMK AO2 SLP195 T02440133
KUAO 190253Z 03009KT 10SM CLR 27/14 A3010 RMK AO2 SLP190 T02720139 56008
KUAO 190153Z 03010KT 10SM CLR 28/14 A3010 RMK AO2 SLP192 T02830144
KUAO 190053Z 06006KT 10SM CLR 29/14 A3011 RMK AO2 SLP194 T02940144
KUAO 182353Z 08009KT 10SM CLR 29/14 A3012 RMK AO2 SLP198 T02890139 10300 20211 56019
KUAO 182253Z 04008KT 010V080 10SM CLR 29/14 A3014 RMK AO2 SLP202 T02890144
KUAO 182153Z VRB03KT 10SM CLR 28/14 A3016 RMK AO2 SLP210 T02780139
KUAO 182053Z 06006KT 10SM CLR 27/14 A3018 RMK AO2 SLP217 T02670139 58013
KUAO 181953Z VRB03KT 10SM CLR 26/14 A3019 RMK AO2 SLP222 T02560139
KUAO 181853Z VRB03KT 10SM FEW030 23/14 A3021 RMK AO2 SLP228 T02280139
KUAO 181839Z 00000KT 10SM BKN030 23/14 A3021 RMK AO2 T02280139
KUAO 181753Z 00000KT 10SM OVC027 21/13 A3022 RMK AO2 SLP231 T02110133 10217 20144 50001
KUAO 181712Z 10004KT 10SM SCT023 OVC030 21/13 A3022 RMK AO2 T02060133
KUAO 181653Z 00000KT 10SM BKN029 19/13 A3023 RMK AO2 SLP233 T01940133
KUAO 181553Z 00000KT 10SM BKN029 19/13 A3023 RMK AO2 SLP233 T01940133
KUAO 181539Z 00000KT 10SM BKN029 19/13 A3022 RMK AO2 T01890133
KUAO 181453Z 00000KT 10SM CLR 18/13 A3022 RMK AO2 SLP230 T01830133 51014
KUAO 181353Z 00000KT 10SM CLR 16/14 A3020 RMK AO2 SLP225 T01560139
KUAO 181253Z 00000KT 10SM CLR 14/13 A3019 RMK AO2 SLP221 T01440128
KUAO 181153Z 00000KT 10SM CLR 15/13 A3017 RMK AO2 SLP216 T01500128 10194 20144 53010
KUAO 181053Z 00000KT 10SM CLR 16/13 A3016 RMK AO2 SLP211 T01560128
KUAO 180953Z 00000KT 10SM CLR 16/13 A3015 RMK AO2 SLP209 T01610133
KUAO 180853Z 03004KT 10SM CLR 17/13 A3014 RMK AO2 SLP205 T01720133 51020
KUAO 180753Z 06004KT 10SM CLR 18/14 A3013 RMK AO2 SLP200 T01830139 403280139
KUAO 180653Z 00000KT 10SM CLR 18/13 A3010 RMK AO2 SLP191 T01830133
KUAO 180553Z 21004KT 10SM CLR 18/13 A3008 RMK AO2 SLP185 T01830133 10328 20183 53025
KUAO 180453Z 22004KT 10SM CLR 21/13 A3006 RMK AO2 SLP176 T02110133
KUAO 180353Z 24007KT 10SM CLR 24/13 A3003 RMK AO2 SLP166 T02390133
KUAO 180253Z 23006KT 10SM CLR 27/13 A3001 RMK AO2 SLP160 T02720133 53003
KUAO 180153Z 23006KT 10SM CLR 31/11 A3000 RMK AO2 SLP155 T03060106
KUAO 180053Z 23007KT 10SM CLR 32/12 A3000 RMK AO2 SLP155 T03220122
KUAO 172353Z VRB06KT 10SM CLR 32/12 A3000 RMK AO2 SLP157 T03220117 10328 20233 57014
KUAO 172253Z 27005KT 10SM CLR 32/12 A3002 RMK AO2 SLP162 T03170122
KUAO 172153Z 25006KT 10SM CLR 31/12 A3003 RMK AO2 SLP166 T03110122
KUAO 172053Z VRB04KT 10SM CLR 30/12 A3004 RMK AO2 SLP171 T03000122 58008
KUAO 171953Z 00000KT 10SM CLR 28/12 A3005 RMK AO2 SLP174 T02830122
KUAO 171853Z 00000KT 10SM CLR 26/14 A3006 RMK AO2 SLP176 T02610139
KUAO 171753Z 26003KT 10SM CLR 24/14 A3007 RMK AO2 SLP179 T02390139 10239 20139 58000
KUAO 171653Z 22005KT 10SM CLR 22/13 A3007 RMK AO2 SLP182 T02170133